.
WxDataArchive / Data Records for 2013-06-24
2013-06-23 June 2013 2013-06-25

Data Records for Monday, 24 June 2013

Time	Temp	Chill	HIndex	Humid	Dewpt	 Wind 	HiWind	WindDir	Rain 	Barom 
-----	----	-----	------	-----	-----	------	------	-------	-----	----- 
00:00	70.9	70.9	70.9	83	65.5	0	1	248	0.00	30.020 
00:05	71.1	71.1	71.1	83	65.7	0	1	248	0.00	30.020 
00:10	71.1	71.1	71.1	83	65.7	0	2	292	0.00	30.020 
00:15	71.1	71.1	71.1	83	65.7	0	1	292	0.00	30.019 
00:20	71.1	71.1	71.1	84	66.0	0	1	292	0.00	30.019 
00:25	71.1	71.1	71.1	84	66.0	0	1	292	0.00	30.019 
00:30	71.1	71.1	71.1	84	66.0	0	1	292	0.00	30.024 
00:35	71.1	71.1	71.1	84	66.0	0	1	292	0.00	30.024 
00:40	70.9	70.9	70.9	84	65.8	0	1	292	0.00	30.024 
00:45	70.9	70.9	70.9	84	65.8	0	1	292	0.00	30.030 
00:50	70.9	70.9	70.9	84	65.8	0	1	292	0.00	30.030 
00:55	70.9	70.9	70.9	84	65.8	0	0	---	0.00	30.030 
01:00	70.9	70.9	70.9	84	65.8	0	1	292	0.00	30.027 
01:05	71.1	71.1	71.1	84	66.0	0	0	---	0.00	30.027 
01:10	71.1	71.1	71.1	84	66.0	0	1	292	0.00	30.027 
01:15	71.1	71.1	71.1	84	66.0	0	0	---	0.00	30.027 
01:20	70.9	70.9	70.9	84	65.8	0	0	---	0.00	30.027 
01:25	70.9	70.9	70.9	84	65.8	0	0	---	0.00	30.027 
01:30	70.9	70.9	70.9	84	65.8	0	0	---	0.00	30.023 
01:35	70.9	70.9	70.9	85	66.2	0	1	292	0.00	30.023 
01:40	70.8	70.8	70.8	85	66.1	0	0	---	0.00	30.023 
01:45	70.8	70.8	70.8	85	66.1	0	0	---	0.00	30.023 
01:50	70.8	70.8	70.8	85	66.1	0	1	292	0.00	30.023 
01:55	70.8	70.8	70.8	85	66.1	0	0	---	0.00	30.023 
02:00	70.8	70.8	70.8	85	66.1	0	0	---	0.00	30.029 
02:05	70.8	70.8	70.8	85	66.1	0	1	292	0.00	30.029 
02:10	70.8	70.8	70.8	85	66.1	0	2	292	0.00	30.029 
02:15	70.9	70.9	70.9	85	66.2	0	2	292	0.00	30.032 
02:20	70.9	70.9	70.9	85	66.2	0	1	292	0.00	30.032 
02:25	70.9	70.9	70.9	85	66.2	0	0	---	0.00	30.032 
02:30	70.8	70.8	70.8	85	66.1	0	0	---	0.00	30.033 
02:35	70.8	70.8	70.8	85	66.1	0	1	292	0.00	30.033 
02:40	70.6	70.6	70.6	86	66.2	0	1	292	0.00	30.033 
02:45	70.4	70.4	70.4	86	66.0	0	1	292	0.00	30.034 
02:50	70.4	70.4	70.4	86	66.0	0	0	---	0.00	30.034 
02:55	70.3	70.3	70.3	87	66.2	0	1	292	0.00	30.034 
03:00	70.3	70.3	70.3	87	66.2	0	1	292	0.00	30.033 
03:05	70.1	70.1	70.1	87	66.0	0	0	---	0.00	30.033 
03:10	70.1	70.1	70.1	88	66.4	0	1	292	0.00	30.033 
03:15	70.1	70.1	70.1	88	66.4	0	1	292	0.00	30.033 
03:20	69.9	69.9	69.9	88	66.2	0	0	---	0.00	30.033 
03:25	69.9	69.9	69.9	88	66.2	0	0	---	0.00	30.033 
03:30	69.8	69.8	69.8	88	66.1	0	0	---	0.00	30.031 
03:35	69.8	69.8	69.8	88	66.1	0	1	292	0.00	30.031 
03:40	69.6	69.6	69.6	89	66.2	0	0	---	0.00	30.031 
03:45	69.6	69.6	69.6	89	66.2	0	0	---	0.00	30.025 
03:50	69.4	69.4	69.4	89	66.0	0	0	---	0.00	30.025 
03:55	69.3	69.3	69.3	89	65.9	0	0	---	0.00	30.025 
04:00	69.1	69.1	69.1	89	65.7	0	0	---	0.00	30.023 
04:05	69.1	69.1	69.1	89	65.7	0	0	---	0.00	30.023 
04:10	68.9	68.9	68.9	90	65.8	0	0	---	0.00	30.023 
04:15	68.8	68.8	68.8	90	65.7	0	0	---	0.00	30.021 
04:20	68.8	68.8	68.8	90	65.7	0	0	---	0.00	30.021 
04:25	68.6	68.6	68.6	90	65.5	0	0	---	0.00	30.021 
04:30	68.4	68.4	68.4	90	65.3	0	0	---	0.00	30.019 
04:35	68.4	68.4	68.4	91	65.7	0	0	---	0.00	30.019 
04:40	68.4	68.4	68.4	91	65.7	0	0	---	0.00	30.019 
04:45	68.3	68.3	68.3	91	65.6	0	0	---	0.00	30.020 
04:50	68.3	68.3	68.3	91	65.6	0	0	---	0.00	30.020 
04:55	68.3	68.3	68.3	92	65.9	0	0	---	0.00	30.020 
05:00	68.3	68.3	68.3	92	65.9	0	1	292	0.00	30.021 
05:05	68.3	68.3	68.3	92	65.9	0	0	---	0.00	30.021 
05:10	68.3	68.3	68.3	92	65.9	0	0	---	0.00	30.021 
05:15	68.3	68.3	68.3	92	65.9	0	0	---	0.00	30.020 
05:20	68.3	68.3	68.3	92	65.9	0	0	---	0.00	30.020 
05:25	68.1	68.1	68.1	92	65.7	0	0	---	0.00	30.020 
05:30	68.1	68.1	68.1	92	65.7	0	1	292	0.00	30.021 
05:35	67.9	67.9	67.9	92	65.5	0	0	---	0.00	30.021 
05:40	67.8	67.8	67.8	92	65.4	0	0	---	0.00	30.021 
05:45	67.8	67.8	67.8	92	65.4	0	0	---	0.00	30.021 
05:50	67.6	67.6	67.6	92	65.2	0	0	---	0.00	30.021 
05:55	67.4	67.4	67.4	93	65.3	0	0	---	0.00	30.021 
06:00	67.4	67.4	67.4	93	65.3	0	0	---	0.00	30.022 
06:05	67.4	67.4	67.4	93	65.3	0	0	---	0.00	30.022 
06:10	67.4	67.4	67.4	93	65.3	0	0	---	0.00	30.022 
06:15	67.4	67.4	67.4	93	65.3	0	1	292	0.00	30.024 
06:20	67.4	67.4	67.4	93	65.3	0	0	---	0.00	30.024 
06:25	67.6	67.6	67.6	93	65.5	0	1	292	0.00	30.024 
06:30	67.8	67.8	67.8	93	65.7	0	1	292	0.00	30.024 
06:35	67.8	67.8	67.8	93	65.7	0	0	---	0.00	30.024 
06:40	67.8	67.8	67.8	93	65.7	0	0	---	0.00	30.024 
06:45	67.9	67.9	67.9	93	65.8	0	0	---	0.00	30.025 
06:50	67.9	67.9	67.9	94	66.1	0	0	---	0.00	30.025 
06:55	68.1	68.1	68.1	94	66.3	0	1	292	0.00	30.025 
07:00	68.1	68.1	68.1	94	66.3	0	1	292	0.00	30.026 
07:05	68.3	68.3	68.3	94	66.5	0	1	292	0.00	30.026 
07:10	68.4	68.4	68.4	94	66.6	0	1	292	0.00	30.026 
07:15	68.6	68.6	68.6	93	66.5	0	1	292	0.00	30.035 
07:20	68.8	68.8	68.8	93	66.7	0	1	292	0.00	30.035 
07:25	68.9	68.9	68.9	93	66.8	0	1	292	0.00	30.035 
07:30	69.3	69.3	69.3	93	67.2	0	1	292	0.00	30.036 
07:35	69.6	69.6	69.6	93	67.5	0	1	292	0.00	30.036 
07:40	70.1	70.1	70.1	92	67.7	0	1	292	0.00	30.036 
07:45	70.4	70.4	70.4	91	67.6	0	2	292	0.00	30.040 
07:50	70.8	70.8	70.8	90	67.7	0	2	292	0.00	30.040 
07:55	71.3	71.3	71.3	89	67.9	0	1	292	0.00	30.040 
08:00	71.8	71.8	71.8	88	68.0	0	2	292	0.00	30.043 
08:05	72.1	72.1	72.1	86	67.7	0	3	292	0.00	30.043 
08:10	72.5	72.5	72.5	85	67.7	0	1	292	0.00	30.043 
08:15	72.7	72.7	72.7	84	67.6	1	2	292	0.00	30.058 
08:20	73.0	73.0	73.0	83	67.5	0	2	292	0.00	30.058 
08:25	73.3	73.3	73.3	82	67.5	1	4	292	0.00	30.058 
08:30	73.7	73.7	73.7	81	67.5	0	3	270	0.00	30.059 
08:35	74.2	74.2	74.2	80	67.6	0	2	270	0.00	30.059 
08:40	74.4	74.4	74.4	79	67.4	1	4	270	0.00	30.059 
08:45	74.9	74.9	74.9	79	67.9	0	4	112	0.00	30.056 
08:50	75.3	75.3	76.3	77	67.6	0	3	292	0.00	30.056 
08:55	75.8	75.8	77.0	77	68.1	0	2	292	0.00	30.056 
09:00	76.1	76.1	77.4	77	68.3	0	3	292	0.00	30.054 
09:05	76.5	76.5	78.0	75	68.0	1	3	292	0.00	30.054 
09:10	76.8	76.8	78.4	75	68.3	1	3	292	0.00	30.054 
09:15	76.8	76.8	78.4	74	67.9	1	3	292	0.00	30.053 
09:20	77.0	77.0	78.7	74	68.1	1	3	292	0.00	30.053 
09:25	77.4	77.4	79.3	74	68.4	1	2	248	0.00	30.053 
09:30	77.2	77.2	79.0	74	68.3	1	5	270	0.00	30.055 
09:35	77.2	77.2	79.0	74	68.3	1	5	270	0.00	30.055 
09:40	77.2	77.2	79.0	74	68.3	1	3	270	0.00	30.055 
09:45	77.2	77.2	79.0	75	68.6	1	3	270	0.00	30.055 
09:50	77.4	77.4	79.3	75	68.8	0	4	270	0.00	30.055 
09:55	77.4	77.4	79.3	75	68.8	2	5	270	0.00	30.055 
10:00	77.6	77.6	79.6	74	68.6	2	5	112	0.00	30.061 
10:05	77.7	77.7	79.7	75	69.1	1	3	270	0.00	30.061 
10:10	77.7	77.7	79.7	75	69.1	1	4	270	0.00	30.061 
10:15	77.7	77.7	79.7	75	69.1	1	4	270	0.00	30.058 
10:20	77.6	77.6	79.6	75	69.0	1	3	270	0.00	30.058 
10:25	77.7	77.7	79.7	75	69.1	2	4	270	0.00	30.058 
10:30	77.7	77.7	79.7	75	69.1	1	4	270	0.00	30.058 
10:35	77.7	77.7	79.7	74	68.7	1	4	292	0.00	30.058 
10:40	77.9	77.9	80.0	75	69.3	1	5	292	0.00	30.058 
10:45	78.1	78.1	80.3	74	69.1	1	3	292	0.00	30.062 
10:50	77.9	77.9	79.9	72	68.1	1	5	292	0.00	30.062 
10:55	77.4	77.4	79.3	72	67.6	3	6	270	0.00	30.062 
11:00	77.2	77.2	79.0	73	67.9	1	4	270	0.00	30.059 
11:05	77.2	77.2	79.0	73	67.9	1	5	270	0.00	30.059 
11:10	77.0	77.0	78.7	73	67.7	1	5	270	0.00	30.059 
11:15	77.2	77.2	79.0	73	67.9	1	4	270	0.00	30.069 
11:20	77.6	77.6	79.5	73	68.2	1	3	270	0.00	30.069 
11:25	78.5	78.5	80.8	71	68.3	1	4	270	0.00	30.069 
11:30	79.2	79.2	81.6	69	68.1	1	4	270	0.00	30.066 
11:35	79.6	79.6	82.0	67	67.7	1	4	270	0.00	30.066 
11:40	79.6	79.6	81.9	66	67.2	2	4	270	0.00	30.066 
11:45	79.4	79.4	81.6	66	67.0	1	4	270	0.00	30.067 
11:50	79.2	79.2	81.5	67	67.3	2	5	270	0.00	30.067 
11:55	79.4	79.4	81.8	68	67.9	1	4	270	0.00	30.067 
12:00	79.8	79.8	82.2	66	67.4	2	4	270	0.00	30.068 
12:05	79.9	79.9	82.2	65	67.1	1	4	292	0.00	30.068 
12:10	80.1	80.1	82.5	65	67.2	3	5	270	0.00	30.068 
12:15	80.5	80.5	82.8	63	66.7	2	4	270	0.00	30.067 
12:20	80.7	80.7	82.9	62	66.4	2	5	270	0.00	30.067 
12:25	80.7	80.7	82.8	61	66.0	3	6	315	0.00	30.067 
12:30	80.9	80.9	83.1	61	66.2	2	6	315	0.00	30.057 
12:35	81.2	81.2	83.5	61	66.4	2	4	270	0.00	30.057 
12:40	81.2	81.2	83.6	62	66.9	1	4	270	0.00	30.057 
12:45	81.2	81.2	83.6	62	66.9	2	6	315	0.00	30.055 
12:50	81.4	81.4	83.3	58	65.2	2	5	270	0.00	30.055 
12:55	81.8	81.8	84.1	60	66.5	3	6	270	0.00	30.055 
13:00	82.0	82.0	84.1	58	65.7	2	4	270	0.00	30.054 
13:05	82.2	82.2	84.5	59	66.4	2	4	270	0.00	30.054 
13:10	82.4	82.4	84.6	58	66.1	2	5	270	0.00	30.054 
13:15	82.6	82.6	85.3	60	67.3	1	3	270	0.00	30.039 
13:20	82.6	82.6	84.9	58	66.3	2	4	315	0.00	30.039 
13:25	82.8	82.8	85.8	61	67.9	1	5	315	0.00	30.039 
13:30	83.6	83.6	86.4	58	67.2	1	3	315	0.00	30.022 
13:35	83.8	83.8	86.2	56	66.4	0	2	338	0.00	30.022 
13:40	84.3	84.3	87.0	56	66.9	1	3	90	0.00	30.022 
13:45	84.7	84.7	87.3	55	66.7	1	3	90	0.00	30.011 
13:50	84.7	84.7	87.0	54	66.2	1	4	292	0.00	30.011 
13:55	84.5	84.5	87.3	56	67.0	0	2	292	0.00	30.011 
14:00	84.7	84.7	87.6	56	67.2	0	2	292	0.00	30.006 
14:05	84.9	84.9	86.6	51	64.7	1	3	292	0.00	30.006 
14:10	85.3	85.3	88.0	54	66.7	0	3	45	0.00	30.006 
14:15	85.9	85.9	88.9	54	67.3	0	2	45	0.00	29.990 
14:20	86.1	86.1	88.0	50	65.3	1	3	45	0.00	29.990 
14:25	85.9	85.9	87.7	50	65.1	1	3	315	0.00	29.990 
14:30	85.9	85.9	87.7	50	65.1	1	2	90	0.00	29.977 
14:35	86.3	86.3	88.3	50	65.4	1	3	90	0.00	29.977 
14:40	86.5	86.5	88.6	50	65.6	1	3	90	0.00	29.977 
14:45	86.3	86.3	88.3	50	65.4	2	5	90	0.00	29.972 
14:50	86.3	86.3	88.9	52	66.6	1	4	90	0.00	29.972 
14:55	86.5	86.5	88.1	48	64.4	1	3	90	0.00	29.972 
15:00	86.7	86.7	88.9	50	65.8	1	3	90	0.00	29.972 
15:05	87.0	87.0	89.7	51	66.6	1	4	112	0.00	29.972 
15:10	87.2	87.2	89.4	49	65.7	1	3	292	0.00	29.972 
15:15	87.2	87.2	89.1	48	65.1	0	3	90	0.00	29.973 
15:20	87.0	87.0	89.7	51	66.6	0	2	90	0.00	29.973 
15:25	86.7	86.7	89.6	52	66.9	1	6	248	0.00	29.973 
15:30	86.1	86.1	88.9	53	66.9	1	3	248	0.00	29.981 
15:35	85.5	85.5	88.3	54	66.9	1	4	270	0.00	29.981 
15:40	85.1	85.1	88.2	56	67.6	0	3	270	0.00	29.981 
15:45	85.3	85.3	88.5	56	67.8	0	3	270	0.00	29.974 
15:50	85.7	85.7	89.5	57	68.7	1	5	315	0.00	29.974 
15:55	86.3	86.3	89.9	55	68.2	1	4	270	0.00	29.974 
16:00	86.5	86.5	90.3	55	68.4	1	3	270	0.00	29.973 
16:05	86.5	86.5	90.3	55	68.4	1	5	90	0.00	29.973 
16:10	86.1	86.1	89.2	54	67.5	1	3	315	0.00	29.973 
16:15	85.7	85.7	89.2	56	68.2	1	4	315	0.00	29.974 
16:20	85.7	85.7	88.6	54	67.1	1	3	68	0.00	29.974 
16:25	86.1	86.1	89.6	55	68.0	1	5	45	0.00	29.974 
16:30	86.3	86.3	89.9	55	68.2	1	4	68	0.00	29.973 
16:35	86.3	86.3	89.6	54	67.7	1	5	68	0.00	29.973 
16:40	86.3	86.3	89.3	53	67.1	1	4	270	0.00	29.973 
16:45	86.3	86.3	89.3	53	67.1	1	3	270	0.00	29.965 
16:50	86.3	86.3	89.3	53	67.1	1	3	270	0.00	29.965 
16:55	86.3	86.3	89.6	54	67.7	0	3	68	0.00	29.965 
17:00	86.3	86.3	88.6	51	66.0	1	3	68	0.00	29.959 
17:05	86.1	86.1	88.9	53	66.9	1	4	22	0.00	29.959 
17:10	85.9	85.9	88.6	53	66.7	1	3	270	0.00	29.959 
17:15	85.9	85.9	89.2	55	67.8	1	2	292	0.00	29.958 
17:20	86.3	86.3	90.2	56	68.7	0	2	292	0.00	29.958 
17:25	86.1	86.1	88.9	53	66.9	1	2	270	0.00	29.958 
17:30	86.1	86.1	89.2	54	67.5	1	3	0	0.00	29.947 
17:35	86.1	86.1	88.9	53	66.9	0	2	315	0.00	29.947 
17:40	86.1	86.1	88.9	53	66.9	1	3	68	0.00	29.947 
17:45	85.7	85.7	88.3	53	66.6	1	2	45	0.00	29.947 
17:50	85.7	85.7	87.7	51	65.5	1	2	0	0.00	29.947 
17:55	85.7	85.7	88.0	52	66.0	1	3	270	0.00	29.947 
18:00	85.5	85.5	87.4	51	65.3	1	4	315	0.00	29.950 
18:05	85.3	85.3	87.1	51	65.1	1	3	315	0.00	29.950 
18:10	84.9	84.9	87.1	53	65.8	1	2	22	0.00	29.950 
18:15	84.7	84.7	86.8	53	65.6	1	5	270	0.00	29.945 
18:20	84.5	84.5	86.5	53	65.5	1	4	270	0.00	29.945 
18:25	84.5	84.5	86.7	54	66.0	1	5	270	0.00	29.945 
18:30	84.5	84.5	86.7	54	66.0	1	3	270	0.00	29.954 
18:35	84.3	84.3	86.5	54	65.8	1	4	292	0.00	29.954 
18:40	84.3	84.3	86.2	53	65.3	1	4	270	0.00	29.954 
18:45	84.1	84.1	85.9	53	65.1	1	4	68	0.00	29.955 
18:50	84.1	84.1	86.2	54	65.6	1	2	68	0.00	29.955 
18:55	84.1	84.1	86.2	54	65.6	0	2	68	0.00	29.955 
19:00	84.1	84.1	86.2	54	65.6	0	2	45	0.00	29.957 
19:05	84.1	84.1	86.2	54	65.6	1	2	338	0.00	29.957 
19:10	84.1	84.1	86.2	54	65.6	0	4	338	0.00	29.957 
19:15	84.1	84.1	86.4	55	66.2	1	3	248	0.00	29.955 
19:20	84.0	84.0	86.3	55	66.1	1	2	248	0.00	29.955 
19:25	84.0	84.0	86.5	56	66.6	0	3	248	0.00	29.955 
19:30	84.0	84.0	86.5	56	66.6	1	6	315	0.00	29.956 
19:35	84.0	84.0	86.5	56	66.6	1	3	90	0.00	29.956 
19:40	83.8	83.8	86.4	57	66.9	0	2	292	0.00	29.956 
19:45	83.8	83.8	86.7	58	67.4	0	1	292	0.00	29.952 
19:50	83.6	83.6	86.4	58	67.2	0	2	292	0.00	29.952 
19:55	83.4	83.4	86.1	58	67.0	1	2	292	0.00	29.952 
20:00	83.4	83.4	86.1	58	67.0	0	2	292	0.00	29.948 
20:05	83.2	83.2	85.8	58	66.9	0	3	292	0.00	29.948 
20:10	83.2	83.2	85.8	58	66.9	0	2	292	0.00	29.948 
20:15	83.2	83.2	85.8	58	66.9	0	3	292	0.00	29.938 
20:20	83.0	83.0	85.5	58	66.7	0	1	292	0.00	29.938 
20:25	82.8	82.8	85.2	58	66.5	0	2	292	0.00	29.938 
20:30	82.6	82.6	85.1	59	66.8	0	2	292	0.00	29.934 
20:35	82.4	82.4	84.8	59	66.6	0	2	292	0.00	29.934 
20:40	82.2	82.2	84.7	60	66.9	0	1	292	0.00	29.934 
20:45	82.0	82.0	84.2	59	66.2	0	1	292	0.00	29.939 
20:50	81.8	81.8	84.1	60	66.5	0	1	292	0.00	29.939 
20:55	81.6	81.6	83.9	60	66.3	0	1	292	0.00	29.939 
21:00	81.6	81.6	83.9	60	66.3	0	1	292	0.00	29.939 
21:05	81.6	81.6	84.0	61	66.8	0	2	292	0.00	29.939 
21:10	81.6	81.6	84.0	61	66.8	0	1	292	0.00	29.939 
21:15	81.6	81.6	84.0	61	66.8	0	2	292	0.00	29.942 
21:20	81.6	81.6	84.0	61	66.8	0	1	292	0.00	29.942 
21:25	81.6	81.6	84.2	62	67.3	0	3	292	0.00	29.942 
21:30	81.6	81.6	84.2	62	67.3	0	2	292	0.00	29.948 
21:35	81.4	81.4	83.9	62	67.1	0	1	292	0.00	29.948 
21:40	80.5	80.5	81.7	54	62.3	5	15	270	0.00	29.948 
21:45	76.3	76.3	78.2	64	63.2	7	14	270	0.03	30.007 
21:50	71.8	71.8	71.8	77	64.2	5	9	270	0.14	30.007 
21:55	69.9	69.9	69.9	84	64.8	2	5	270	0.02	30.007 
22:00	69.1	69.1	69.1	87	65.1	1	3	270	0.00	29.977 
22:05	68.6	68.6	68.6	89	65.2	1	3	270	0.00	29.977 
22:10	68.4	68.4	68.4	89	65.0	1	2	270	0.00	29.977 
22:15	68.1	68.1	68.1	90	65.0	0	2	270	0.00	29.996 
22:20	68.1	68.1	68.1	91	65.4	0	2	0	0.00	29.996 
22:25	67.9	67.9	67.9	91	65.2	0	3	0	0.00	29.996 
22:30	67.6	67.6	67.6	91	64.9	1	3	292	0.00	30.000 
22:35	67.4	67.4	67.4	92	65.0	0	1	292	0.00	30.000 
22:40	67.1	67.1	67.1	92	64.7	0	1	292	0.00	30.000 
22:45	66.9	66.9	66.9	92	64.5	0	3	292	0.00	29.982 
22:50	66.9	66.9	66.9	92	64.5	1	3	270	0.00	29.982 
22:55	66.8	66.8	66.8	92	64.4	0	2	270	0.00	29.982 
23:00	66.8	66.8	66.8	92	64.4	0	4	338	0.00	29.960 
23:05	66.9	66.9	66.9	92	64.5	0	3	248	0.00	29.960 
23:10	66.9	66.9	66.9	92	64.5	1	3	248	0.00	29.960 
23:15	67.1	67.1	67.1	92	64.7	1	3	90	0.00	29.936 
23:20	67.3	67.3	67.3	92	64.9	0	2	90	0.01	29.936 
23:25	67.3	67.3	67.3	92	64.9	0	2	90	0.00	29.936 
23:30	67.3	67.3	67.3	92	64.9	0	0	---	0.00	29.929 
23:35	67.4	67.4	67.4	93	65.3	0	0	---	0.00	29.929 
23:40	67.4	67.4	67.4	93	65.3	0	0	---	0.00	29.929 
23:45	67.4	67.4	67.4	93	65.3	0	0	---	0.00	29.910 
23:50	67.6	67.6	67.6	93	65.5	0	0	---	0.00	29.910 
23:55	67.6	67.6	67.6	93	65.5	0	0	---	0.00	29.910 

CoCoRaHS
IN-AL-39
A2 Web Hosting
Creative Commons License
GoDaddy
search engine by freefind advanced

loaded 2018-11-17 05:36:30 • last modified 2010-11-18 10:43:29
Privacy PolicyDisclaimer
• wx.awcolley.com is powered by PmWiki v.2002016 •
• all content (unless otherwise noted) © 2018 A W Colley